sensor_id;sensor_type;location;lat;lon;timestamp;P1;durP1;ratioP1;P2;durP2;ratioP2
14316;SDS011;7242;50.858;6.586;2023-02-10T00:00:46;37.37;;;27.30;;
14316;SDS011;7242;50.858;6.586;2023-02-10T00:03:47;36.10;;;27.73;;
14316;SDS011;7242;50.858;6.586;2023-02-10T00:06:48;37.90;;;27.57;;
14316;SDS011;7242;50.858;6.586;2023-02-10T00:09:49;37.63;;;27.70;;
14316;SDS011;7242;50.858;6.586;2023-02-10T00:12:49;37.20;;;27.90;;
14316;SDS011;7242;50.858;6.586;2023-02-10T00:15:50;39.20;;;29.10;;
14316;SDS011;7242;50.858;6.586;2023-02-10T00:18:51;38.53;;;27.40;;
14316;SDS011;7242;50.858;6.586;2023-02-10T00:21:52;38.93;;;28.10;;
14316;SDS011;7242;50.858;6.586;2023-02-10T00:24:53;39.97;;;27.97;;
14316;SDS011;7242;50.858;6.586;2023-02-10T00:27:53;37.30;;;27.43;;
14316;SDS011;7242;50.858;6.586;2023-02-10T00:30:54;39.50;;;29.03;;
14316;SDS011;7242;50.858;6.586;2023-02-10T00:33:55;34.97;;;27.63;;
14316;SDS011;7242;50.858;6.586;2023-02-10T00:36:55;39.30;;;28.73;;
14316;SDS011;7242;50.858;6.586;2023-02-10T00:39:57;42.23;;;29.53;;
14316;SDS011;7242;50.858;6.586;2023-02-10T00:42:57;41.77;;;28.40;;
14316;SDS011;7242;50.858;6.586;2023-02-10T00:45:58;40.90;;;29.40;;
14316;SDS011;7242;50.858;6.586;2023-02-10T00:48:59;45.10;;;29.53;;
14316;SDS011;7242;50.858;6.586;2023-02-10T00:51:59;42.90;;;30.63;;
14316;SDS011;7242;50.858;6.586;2023-02-10T00:55:00;42.67;;;29.27;;
14316;SDS011;7242;50.858;6.586;2023-02-10T00:58:01;40.10;;;28.93;;
14316;SDS011;7242;50.858;6.586;2023-02-10T01:01:02;39.93;;;29.00;;
14316;SDS011;7242;50.858;6.586;2023-02-10T01:04:03;37.67;;;28.80;;
14316;SDS011;7242;50.858;6.586;2023-02-10T01:07:04;37.17;;;28.00;;
14316;SDS011;7242;50.858;6.586;2023-02-10T01:10:05;39.83;;;29.27;;
14316;SDS011;7242;50.858;6.586;2023-02-10T01:13:07;41.60;;;29.37;;
14316;SDS011;7242;50.858;6.586;2023-02-10T01:16:09;41.10;;;29.20;;
14316;SDS011;7242;50.858;6.586;2023-02-10T01:19:13;47.73;;;30.30;;
14316;SDS011;7242;50.858;6.586;2023-02-10T01:22:13;40.07;;;28.97;;
14316;SDS011;7242;50.858;6.586;2023-02-10T01:25:14;42.53;;;30.30;;
14316;SDS011;7242;50.858;6.586;2023-02-10T01:28:15;42.60;;;29.27;;
14316;SDS011;7242;50.858;6.586;2023-02-10T01:31:17;42.03;;;28.50;;
14316;SDS011;7242;50.858;6.586;2023-02-10T01:34:19;39.47;;;27.67;;
14316;SDS011;7242;50.858;6.586;2023-02-10T01:37:20;39.47;;;28.30;;
14316;SDS011;7242;50.858;6.586;2023-02-10T01:40:24;41.33;;;28.57;;
14316;SDS011;7242;50.858;6.586;2023-02-10T01:43:25;39.87;;;28.40;;
14316;SDS011;7242;50.858;6.586;2023-02-10T01:46:28;39.37;;;27.77;;
14316;SDS011;7242;50.858;6.586;2023-02-10T01:49:30;42.10;;;29.57;;
14316;SDS011;7242;50.858;6.586;2023-02-10T01:52:34;39.87;;;28.93;;
14316;SDS011;7242;50.858;6.586;2023-02-10T01:55:35;41.10;;;28.60;;
14316;SDS011;7242;50.858;6.586;2023-02-10T01:58:39;40.60;;;29.73;;
14316;SDS011;7242;50.858;6.586;2023-02-10T02:01:41;45.40;;;30.53;;
14316;SDS011;7242;50.858;6.586;2023-02-10T02:04:44;43.97;;;28.97;;
14316;SDS011;7242;50.858;6.586;2023-02-10T02:07:46;43.07;;;29.77;;
14316;SDS011;7242;50.858;6.586;2023-02-10T02:23:59;44.20;;;30.70;;
14316;SDS011;7242;50.858;6.586;2023-02-10T02:27:24;39.67;;;28.43;;
14316;SDS011;7242;50.858;6.586;2023-02-10T02:34:38;43.73;;;29.67;;
14316;SDS011;7242;50.858;6.586;2023-02-10T02:37:45;44.57;;;29.10;;
14316;SDS011;7242;50.858;6.586;2023-02-10T02:40:47;41.80;;;30.00;;
14316;SDS011;7242;50.858;6.586;2023-02-10T02:43:50;40.00;;;28.57;;
14316;SDS011;7242;50.858;6.586;2023-02-10T02:50:23;41.50;;;28.47;;
14316;SDS011;7242;50.858;6.586;2023-02-10T02:57:39;41.90;;;28.53;;
14316;SDS011;7242;50.858;6.586;2023-02-10T03:00:41;41.40;;;29.40;;
14316;SDS011;7242;50.858;6.586;2023-02-10T03:03:45;43.10;;;29.73;;
14316;SDS011;7242;50.858;6.586;2023-02-10T03:06:45;39.40;;;28.30;;
14316;SDS011;7242;50.858;6.586;2023-02-10T03:09:46;39.77;;;27.50;;
14316;SDS011;7242;50.858;6.586;2023-02-10T03:12:47;38.77;;;28.10;;
14316;SDS011;7242;50.858;6.586;2023-02-10T03:15:48;42.13;;;29.23;;
14316;SDS011;7242;50.858;6.586;2023-02-10T03:18:49;42.53;;;28.90;;
14316;SDS011;7242;50.858;6.586;2023-02-10T03:21:49;42.23;;;29.43;;
14316;SDS011;7242;50.858;6.586;2023-02-10T03:24:50;42.03;;;29.03;;
14316;SDS011;7242;50.858;6.586;2023-02-10T03:27:51;40.83;;;29.93;;
14316;SDS011;7242;50.858;6.586;2023-02-10T03:30:51;41.90;;;29.20;;
14316;SDS011;7242;50.858;6.586;2023-02-10T03:33:52;42.80;;;30.27;;
14316;SDS011;7242;50.858;6.586;2023-02-10T03:36:53;46.57;;;30.33;;
14316;SDS011;7242;50.858;6.586;2023-02-10T03:39:54;39.40;;;29.00;;
14316;SDS011;7242;50.858;6.586;2023-02-10T03:42:54;42.67;;;29.37;;
14316;SDS011;7242;50.858;6.586;2023-02-10T03:45:58;42.07;;;28.70;;
14316;SDS011;7242;50.858;6.586;2023-02-10T03:49:00;38.63;;;29.13;;
14316;SDS011;7242;50.858;6.586;2023-02-10T03:52:01;41.80;;;28.87;;
14316;SDS011;7242;50.858;6.586;2023-02-10T03:55:02;39.37;;;28.57;;
14316;SDS011;7242;50.858;6.586;2023-02-10T03:58:03;46.63;;;29.83;;
14316;SDS011;7242;50.858;6.586;2023-02-10T04:01:10;47.37;;;30.90;;
14316;SDS011;7242;50.858;6.586;2023-02-10T04:04:13;41.83;;;28.60;;
14316;SDS011;7242;50.858;6.586;2023-02-10T04:07:13;45.90;;;30.73;;
14316;SDS011;7242;50.858;6.586;2023-02-10T04:10:15;42.07;;;30.53;;
14316;SDS011;7242;50.858;6.586;2023-02-10T04:13:15;43.13;;;30.17;;
14316;SDS011;7242;50.858;6.586;2023-02-10T04:16:16;45.13;;;30.73;;
14316;SDS011;7242;50.858;6.586;2023-02-10T04:19:19;46.03;;;30.67;;
14316;SDS011;7242;50.858;6.586;2023-02-10T04:22:20;40.33;;;28.03;;
14316;SDS011;7242;50.858;6.586;2023-02-10T04:25:20;43.53;;;30.27;;
14316;SDS011;7242;50.858;6.586;2023-02-10T04:28:23;41.93;;;29.87;;
14316;SDS011;7242;50.858;6.586;2023-02-10T04:31:24;43.80;;;30.73;;
14316;SDS011;7242;50.858;6.586;2023-02-10T04:34:24;44.43;;;30.40;;
14316;SDS011;7242;50.858;6.586;2023-02-10T04:37:25;43.97;;;30.50;;
14316;SDS011;7242;50.858;6.586;2023-02-10T04:40:26;43.60;;;30.27;;
14316;SDS011;7242;50.858;6.586;2023-02-10T04:43:26;41.57;;;29.77;;
14316;SDS011;7242;50.858;6.586;2023-02-10T04:46:27;44.20;;;30.13;;
14316;SDS011;7242;50.858;6.586;2023-02-10T04:49:28;43.10;;;30.47;;
14316;SDS011;7242;50.858;6.586;2023-02-10T04:52:28;44.33;;;30.37;;
14316;SDS011;7242;50.858;6.586;2023-02-10T04:55:29;45.60;;;30.13;;
14316;SDS011;7242;50.858;6.586;2023-02-10T04:58:30;42.70;;;29.60;;
14316;SDS011;7242;50.858;6.586;2023-02-10T05:01:31;45.07;;;30.13;;
14316;SDS011;7242;50.858;6.586;2023-02-10T05:04:32;42.40;;;28.90;;
14316;SDS011;7242;50.858;6.586;2023-02-10T05:07:33;42.80;;;28.83;;
14316;SDS011;7242;50.858;6.586;2023-02-10T05:10:33;43.33;;;29.57;;
14316;SDS011;7242;50.858;6.586;2023-02-10T05:13:34;50.07;;;33.60;;
14316;SDS011;7242;50.858;6.586;2023-02-10T05:16:35;46.37;;;32.53;;
14316;SDS011;7242;50.858;6.586;2023-02-10T05:19:36;49.47;;;32.73;;
14316;SDS011;7242;50.858;6.586;2023-02-10T05:22:37;49.60;;;32.93;;
14316;SDS011;7242;50.858;6.586;2023-02-10T05:25:38;51.80;;;32.50;;
14316;SDS011;7242;50.858;6.586;2023-02-10T05:28:39;49.43;;;32.07;;
14316;SDS011;7242;50.858;6.586;2023-02-10T05:31:40;47.73;;;32.23;;
14316;SDS011;7242;50.858;6.586;2023-02-10T05:34:40;48.87;;;31.63;;
14316;SDS011;7242;50.858;6.586;2023-02-10T05:37:41;46.90;;;31.73;;
14316;SDS011;7242;50.858;6.586;2023-02-10T05:40:42;47.90;;;32.30;;
14316;SDS011;7242;50.858;6.586;2023-02-10T05:43:42;49.53;;;32.20;;
14316;SDS011;7242;50.858;6.586;2023-02-10T05:46:43;53.80;;;33.33;;
14316;SDS011;7242;50.858;6.586;2023-02-10T05:49:44;50.60;;;31.77;;
14316;SDS011;7242;50.858;6.586;2023-02-10T05:52:44;49.70;;;32.13;;
14316;SDS011;7242;50.858;6.586;2023-02-10T05:55:45;48.57;;;31.67;;
14316;SDS011;7242;50.858;6.586;2023-02-10T05:58:46;50.23;;;32.50;;
14316;SDS011;7242;50.858;6.586;2023-02-10T06:01:47;52.80;;;32.83;;
14316;SDS011;7242;50.858;6.586;2023-02-10T06:04:47;47.00;;;31.50;;
14316;SDS011;7242;50.858;6.586;2023-02-10T06:07:49;47.07;;;31.67;;
14316;SDS011;7242;50.858;6.586;2023-02-10T06:10:49;47.77;;;32.13;;
14316;SDS011;7242;50.858;6.586;2023-02-10T06:13:50;51.47;;;33.77;;
14316;SDS011;7242;50.858;6.586;2023-02-10T06:16:51;55.77;;;33.97;;
14316;SDS011;7242;50.858;6.586;2023-02-10T06:19:52;54.27;;;34.07;;
14316;SDS011;7242;50.858;6.586;2023-02-10T06:22:52;53.77;;;33.30;;
14316;SDS011;7242;50.858;6.586;2023-02-10T06:25:53;51.27;;;33.80;;
14316;SDS011;7242;50.858;6.586;2023-02-10T06:28:54;47.13;;;31.27;;
14316;SDS011;7242;50.858;6.586;2023-02-10T06:31:56;52.73;;;32.63;;
14316;SDS011;7242;50.858;6.586;2023-02-10T06:34:56;51.53;;;32.70;;
14316;SDS011;7242;50.858;6.586;2023-02-10T06:37:57;47.70;;;31.63;;
14316;SDS011;7242;50.858;6.586;2023-02-10T06:40:58;49.60;;;32.10;;
14316;SDS011;7242;50.858;6.586;2023-02-10T06:43:59;49.07;;;32.77;;
14316;SDS011;7242;50.858;6.586;2023-02-10T06:47:00;49.07;;;32.50;;
14316;SDS011;7242;50.858;6.586;2023-02-10T06:50:01;53.20;;;33.07;;
14316;SDS011;7242;50.858;6.586;2023-02-10T06:53:02;52.27;;;32.40;;
14316;SDS011;7242;50.858;6.586;2023-02-10T06:56:04;53.77;;;34.50;;
14316;SDS011;7242;50.858;6.586;2023-02-10T06:59:04;55.17;;;35.10;;
14316;SDS011;7242;50.858;6.586;2023-02-10T07:02:05;51.90;;;32.23;;
14316;SDS011;7242;50.858;6.586;2023-02-10T07:05:10;54.10;;;33.67;;
14316;SDS011;7242;50.858;6.586;2023-02-10T07:08:11;56.40;;;34.87;;
14316;SDS011;7242;50.858;6.586;2023-02-10T07:11:12;57.90;;;34.63;;
14316;SDS011;7242;50.858;6.586;2023-02-10T07:14:12;54.93;;;32.73;;
14316;SDS011;7242;50.858;6.586;2023-02-10T07:17:13;51.60;;;33.87;;
14316;SDS011;7242;50.858;6.586;2023-02-10T07:20:14;52.40;;;33.83;;
14316;SDS011;7242;50.858;6.586;2023-02-10T07:23:14;51.80;;;32.50;;
14316;SDS011;7242;50.858;6.586;2023-02-10T07:26:15;49.53;;;32.10;;
14316;SDS011;7242;50.858;6.586;2023-02-10T07:29:18;48.50;;;31.67;;
14316;SDS011;7242;50.858;6.586;2023-02-10T07:32:18;49.70;;;32.70;;
14316;SDS011;7242;50.858;6.586;2023-02-10T07:35:19;47.23;;;32.03;;
14316;SDS011;7242;50.858;6.586;2023-02-10T07:38:20;47.37;;;30.67;;
14316;SDS011;7242;50.858;6.586;2023-02-10T07:41:20;48.93;;;30.30;;
14316;SDS011;7242;50.858;6.586;2023-02-10T07:44:21;45.90;;;30.20;;
14316;SDS011;7242;50.858;6.586;2023-02-10T07:47:22;47.73;;;30.03;;
14316;SDS011;7242;50.858;6.586;2023-02-10T07:50:22;48.67;;;31.40;;
14316;SDS011;7242;50.858;6.586;2023-02-10T07:53:23;46.73;;;31.00;;
14316;SDS011;7242;50.858;6.586;2023-02-10T07:56:24;51.20;;;31.87;;
14316;SDS011;7242;50.858;6.586;2023-02-10T07:59:24;47.40;;;31.20;;
14316;SDS011;7242;50.858;6.586;2023-02-10T08:02:25;43.93;;;28.40;;
14316;SDS011;7242;50.858;6.586;2023-02-10T08:05:26;49.10;;;30.50;;
14316;SDS011;7242;50.858;6.586;2023-02-10T08:08:28;48.90;;;31.10;;
14316;SDS011;7242;50.858;6.586;2023-02-10T08:11:28;50.23;;;29.80;;
14316;SDS011;7242;50.858;6.586;2023-02-10T08:14:29;52.23;;;32.13;;
14316;SDS011;7242;50.858;6.586;2023-02-10T08:17:30;46.20;;;30.33;;
14316;SDS011;7242;50.858;6.586;2023-02-10T08:20:31;45.23;;;28.37;;
14316;SDS011;7242;50.858;6.586;2023-02-10T08:23:32;46.10;;;30.13;;
14316;SDS011;7242;50.858;6.586;2023-02-10T08:26:33;43.40;;;28.40;;
14316;SDS011;7242;50.858;6.586;2023-02-10T08:29:34;45.00;;;29.00;;
14316;SDS011;7242;50.858;6.586;2023-02-10T08:32:35;48.97;;;29.50;;
14316;SDS011;7242;50.858;6.586;2023-02-10T08:35:36;41.17;;;27.87;;
14316;SDS011;7242;50.858;6.586;2023-02-10T08:38:37;42.53;;;28.07;;
14316;SDS011;7242;50.858;6.586;2023-02-10T08:41:38;41.27;;;26.83;;
14316;SDS011;7242;50.858;6.586;2023-02-10T08:44:40;47.40;;;26.90;;
14316;SDS011;7242;50.858;6.586;2023-02-10T08:47:41;39.77;;;26.10;;
14316;SDS011;7242;50.858;6.586;2023-02-10T08:50:41;39.10;;;25.63;;
14316;SDS011;7242;50.858;6.586;2023-02-10T08:53:42;35.73;;;24.50;;
14316;SDS011;7242;50.858;6.586;2023-02-10T08:56:43;34.67;;;23.50;;
14316;SDS011;7242;50.858;6.586;2023-02-10T08:59:45;36.90;;;23.83;;
14316;SDS011;7242;50.858;6.586;2023-02-10T09:02:48;37.10;;;23.60;;
14316;SDS011;7242;50.858;6.586;2023-02-10T09:05:49;36.03;;;23.57;;
14316;SDS011;7242;50.858;6.586;2023-02-10T09:08:51;35.13;;;23.17;;
14316;SDS011;7242;50.858;6.586;2023-02-10T09:11:53;36.33;;;22.50;;
14316;SDS011;7242;50.858;6.586;2023-02-10T09:14:54;36.23;;;23.30;;
14316;SDS011;7242;50.858;6.586;2023-02-10T09:17:55;36.47;;;23.83;;
14316;SDS011;7242;50.858;6.586;2023-02-10T09:20:57;44.40;;;25.07;;
14316;SDS011;7242;50.858;6.586;2023-02-10T09:23:58;37.93;;;23.93;;
14316;SDS011;7242;50.858;6.586;2023-02-10T09:26:59;37.57;;;23.10;;
14316;SDS011;7242;50.858;6.586;2023-02-10T09:30:00;42.20;;;26.03;;
14316;SDS011;7242;50.858;6.586;2023-02-10T09:33:01;42.10;;;25.97;;
14316;SDS011;7242;50.858;6.586;2023-02-10T09:36:03;48.37;;;27.87;;
14316;SDS011;7242;50.858;6.586;2023-02-10T09:39:05;41.27;;;25.80;;
14316;SDS011;7242;50.858;6.586;2023-02-10T09:45:20;39.23;;;25.77;;
14316;SDS011;7242;50.858;6.586;2023-02-10T09:48:31;41.87;;;26.70;;
14316;SDS011;7242;50.858;6.586;2023-02-10T09:54:55;39.43;;;26.13;;
14316;SDS011;7242;50.858;6.586;2023-02-10T09:58:56;37.67;;;24.33;;
14316;SDS011;7242;50.858;6.586;2023-02-10T10:02:08;37.80;;;25.00;;
14316;SDS011;7242;50.858;6.586;2023-02-10T10:05:03;39.03;;;26.40;;
14316;SDS011;7242;50.858;6.586;2023-02-10T10:08:22;39.40;;;24.80;;
14316;SDS011;7242;50.858;6.586;2023-02-10T10:11:45;37.17;;;25.27;;
14316;SDS011;7242;50.858;6.586;2023-02-10T10:14:50;38.80;;;24.73;;
14316;SDS011;7242;50.858;6.586;2023-02-10T10:24:55;41.67;;;27.10;;
14316;SDS011;7242;50.858;6.586;2023-02-10T10:34:23;37.57;;;23.90;;
14316;SDS011;7242;50.858;6.586;2023-02-10T10:37:27;45.47;;;27.27;;
14316;SDS011;7242;50.858;6.586;2023-02-10T10:40:30;40.43;;;26.43;;
14316;SDS011;7242;50.858;6.586;2023-02-10T10:43:35;39.50;;;26.30;;
14316;SDS011;7242;50.858;6.586;2023-02-10T10:50:13;40.77;;;26.47;;
14316;SDS011;7242;50.858;6.586;2023-02-10T10:53:35;37.83;;;25.43;;
14316;SDS011;7242;50.858;6.586;2023-02-10T10:56:51;42.83;;;27.13;;
14316;SDS011;7242;50.858;6.586;2023-02-10T10:59:58;38.83;;;26.47;;
14316;SDS011;7242;50.858;6.586;2023-02-10T11:03:13;33.90;;;23.77;;
14316;SDS011;7242;50.858;6.586;2023-02-10T11:06:16;35.73;;;25.40;;
14316;SDS011;7242;50.858;6.586;2023-02-10T11:09:38;38.77;;;25.63;;
14316;SDS011;7242;50.858;6.586;2023-02-10T11:12:41;37.90;;;25.93;;
14316;SDS011;7242;50.858;6.586;2023-02-10T11:15:46;36.50;;;25.20;;
14316;SDS011;7242;50.858;6.586;2023-02-10T11:18:58;35.87;;;25.27;;
14316;SDS011;7242;50.858;6.586;2023-02-10T11:22:00;37.60;;;24.33;;
14316;SDS011;7242;50.858;6.586;2023-02-10T11:25:25;34.47;;;23.40;;
14316;SDS011;7242;50.858;6.586;2023-02-10T11:28:31;32.83;;;22.97;;
14316;SDS011;7242;50.858;6.586;2023-02-10T11:31:33;31.53;;;22.23;;
14316;SDS011;7242;50.858;6.586;2023-02-10T11:34:42;33.40;;;22.57;;
14316;SDS011;7242;50.858;6.586;2023-02-10T11:37:53;32.57;;;22.57;;
14316;SDS011;7242;50.858;6.586;2023-02-10T11:40:57;36.10;;;22.87;;
14316;SDS011;7242;50.858;6.586;2023-02-10T11:44:01;36.70;;;22.77;;
14316;SDS011;7242;50.858;6.586;2023-02-10T11:47:04;34.17;;;22.83;;
14316;SDS011;7242;50.858;6.586;2023-02-10T11:50:20;34.77;;;22.70;;
14316;SDS011;7242;50.858;6.586;2023-02-10T11:53:25;29.77;;;21.83;;
14316;SDS011;7242;50.858;6.586;2023-02-10T11:56:36;30.57;;;21.37;;
14316;SDS011;7242;50.858;6.586;2023-02-10T12:03:49;27.57;;;19.13;;
14316;SDS011;7242;50.858;6.586;2023-02-10T12:07:10;29.07;;;17.53;;
14316;SDS011;7242;50.858;6.586;2023-02-10T12:13:19;23.90;;;15.90;;
14316;SDS011;7242;50.858;6.586;2023-02-10T12:23:07;17.00;;;12.97;;
14316;SDS011;7242;50.858;6.586;2023-02-10T12:30:09;16.37;;;12.70;;
14316;SDS011;7242;50.858;6.586;2023-02-10T12:33:38;17.80;;;13.37;;
14316;SDS011;7242;50.858;6.586;2023-02-10T12:36:54;20.80;;;14.17;;
14316;SDS011;7242;50.858;6.586;2023-02-10T12:40:13;24.60;;;15.60;;
14316;SDS011;7242;50.858;6.586;2023-02-10T12:43:57;21.83;;;15.60;;
14316;SDS011;7242;50.858;6.586;2023-02-10T12:47:26;18.20;;;14.97;;
14316;SDS011;7242;50.858;6.586;2023-02-10T12:53:28;18.90;;;15.10;;
14316;SDS011;7242;50.858;6.586;2023-02-10T12:59:58;22.90;;;14.97;;
14316;SDS011;7242;50.858;6.586;2023-02-10T13:03:09;21.87;;;16.03;;
14316;SDS011;7242;50.858;6.586;2023-02-10T13:09:26;19.63;;;15.60;;
14316;SDS011;7242;50.858;6.586;2023-02-10T13:12:46;21.27;;;13.77;;
14316;SDS011;7242;50.858;6.586;2023-02-10T13:15:50;18.03;;;13.30;;
14316;SDS011;7242;50.858;6.586;2023-02-10T13:19:01;19.27;;;14.17;;
14316;SDS011;7242;50.858;6.586;2023-02-10T13:25:48;17.13;;;13.30;;
14316;SDS011;7242;50.858;6.586;2023-02-10T13:35:20;18.10;;;14.13;;
14316;SDS011;7242;50.858;6.586;2023-02-10T13:38:23;17.17;;;12.00;;
14316;SDS011;7242;50.858;6.586;2023-02-10T13:41:31;16.90;;;12.00;;
14316;SDS011;7242;50.858;6.586;2023-02-10T13:44:43;15.40;;;11.60;;
14316;SDS011;7242;50.858;6.586;2023-02-10T13:50:46;15.00;;;10.87;;
14316;SDS011;7242;50.858;6.586;2023-02-10T13:53:49;15.90;;;11.90;;
14316;SDS011;7242;50.858;6.586;2023-02-10T13:56:54;17.60;;;11.90;;
14316;SDS011;7242;50.858;6.586;2023-02-10T14:06:16;18.27;;;12.73;;
14316;SDS011;7242;50.858;6.586;2023-02-10T14:09:19;16.93;;;12.67;;
14316;SDS011;7242;50.858;6.586;2023-02-10T14:12:28;16.97;;;12.57;;
14316;SDS011;7242;50.858;6.586;2023-02-10T14:15:31;17.40;;;12.53;;
14316;SDS011;7242;50.858;6.586;2023-02-10T14:18:37;14.57;;;11.70;;
14316;SDS011;7242;50.858;6.586;2023-02-10T14:21:39;12.80;;;10.93;;
14316;SDS011;7242;50.858;6.586;2023-02-10T14:24:42;16.43;;;11.37;;
14316;SDS011;7242;50.858;6.586;2023-02-10T14:27:48;16.23;;;11.70;;
14316;SDS011;7242;50.858;6.586;2023-02-10T14:30:54;17.20;;;11.13;;
14316;SDS011;7242;50.858;6.586;2023-02-10T14:34:00;15.13;;;10.73;;
14316;SDS011;7242;50.858;6.586;2023-02-10T14:37:14;16.43;;;11.50;;
14316;SDS011;7242;50.858;6.586;2023-02-10T14:40:15;18.00;;;11.50;;
14316;SDS011;7242;50.858;6.586;2023-02-10T14:43:18;23.07;;;11.70;;
14316;SDS011;7242;50.858;6.586;2023-02-10T14:46:24;18.03;;;12.37;;
14316;SDS011;7242;50.858;6.586;2023-02-10T14:49:26;21.13;;;11.90;;
14316;SDS011;7242;50.858;6.586;2023-02-10T14:52:30;18.00;;;12.23;;
14316;SDS011;7242;50.858;6.586;2023-02-10T14:58:34;18.77;;;11.73;;
14316;SDS011;7242;50.858;6.586;2023-02-10T15:01:35;18.90;;;12.37;;
14316;SDS011;7242;50.858;6.586;2023-02-10T15:04:36;16.63;;;12.53;;
14316;SDS011;7242;50.858;6.586;2023-02-10T15:07:38;20.47;;;12.43;;
14316;SDS011;7242;50.858;6.586;2023-02-10T15:10:43;20.20;;;13.10;;
14316;SDS011;7242;50.858;6.586;2023-02-10T15:13:49;18.80;;;13.03;;
14316;SDS011;7242;50.858;6.586;2023-02-10T15:16:50;17.50;;;13.03;;
14316;SDS011;7242;50.858;6.586;2023-02-10T15:29:20;19.03;;;12.80;;
14316;SDS011;7242;50.858;6.586;2023-02-10T15:32:21;20.67;;;13.67;;
14316;SDS011;7242;50.858;6.586;2023-02-10T15:35:22;19.30;;;13.40;;
14316;SDS011;7242;50.858;6.586;2023-02-10T15:38:24;16.97;;;12.67;;
14316;SDS011;7242;50.858;6.586;2023-02-10T15:44:36;15.97;;;12.37;;
14316;SDS011;7242;50.858;6.586;2023-02-10T15:47:47;18.50;;;13.33;;
14316;SDS011;7242;50.858;6.586;2023-02-10T15:51:43;15.43;;;11.97;;
14316;SDS011;7242;50.858;6.586;2023-02-10T15:54:44;13.93;;;12.00;;
14316;SDS011;7242;50.858;6.586;2023-02-10T15:57:45;17.83;;;12.93;;
14316;SDS011;7242;50.858;6.586;2023-02-10T16:00:46;16.43;;;11.67;;
14316;SDS011;7242;50.858;6.586;2023-02-10T16:03:47;16.67;;;11.20;;
14316;SDS011;7242;50.858;6.586;2023-02-10T16:06:48;14.50;;;10.53;;
14316;SDS011;7242;50.858;6.586;2023-02-10T16:09:50;16.47;;;11.00;;
14316;SDS011;7242;50.858;6.586;2023-02-10T16:12:51;13.27;;;10.17;;
14316;SDS011;7242;50.858;6.586;2023-02-10T16:15:52;15.77;;;9.73;;
14316;SDS011;7242;50.858;6.586;2023-02-10T16:18:53;13.67;;;9.87;;
14316;SDS011;7242;50.858;6.586;2023-02-10T16:21:54;11.30;;;9.30;;
14316;SDS011;7242;50.858;6.586;2023-02-10T16:24:56;11.27;;;8.93;;
14316;SDS011;7242;50.858;6.586;2023-02-10T16:27:57;16.00;;;10.13;;
14316;SDS011;7242;50.858;6.586;2023-02-10T16:30:58;14.13;;;10.40;;
14316;SDS011;7242;50.858;6.586;2023-02-10T16:33:58;16.23;;;10.60;;
14316;SDS011;7242;50.858;6.586;2023-02-10T16:36:59;15.47;;;11.30;;
14316;SDS011;7242;50.858;6.586;2023-02-10T16:40:00;14.70;;;11.63;;
14316;SDS011;7242;50.858;6.586;2023-02-10T16:43:02;18.27;;;13.03;;
14316;SDS011;7242;50.858;6.586;2023-02-10T16:46:03;17.63;;;13.20;;
14316;SDS011;7242;50.858;6.586;2023-02-10T16:49:04;20.83;;;15.00;;
14316;SDS011;7242;50.858;6.586;2023-02-10T16:52:05;18.27;;;13.73;;
14316;SDS011;7242;50.858;6.586;2023-02-10T16:55:06;22.27;;;15.20;;
14316;SDS011;7242;50.858;6.586;2023-02-10T17:01:15;22.17;;;15.73;;
14316;SDS011;7242;50.858;6.586;2023-02-10T17:04:17;23.73;;;16.83;;
14316;SDS011;7242;50.858;6.586;2023-02-10T17:07:18;22.17;;;15.77;;
14316;SDS011;7242;50.858;6.586;2023-02-10T17:10:20;23.83;;;17.47;;
14316;SDS011;7242;50.858;6.586;2023-02-10T17:13:23;23.23;;;16.63;;
14316;SDS011;7242;50.858;6.586;2023-02-10T17:16:27;24.93;;;16.33;;
14316;SDS011;7242;50.858;6.586;2023-02-10T17:19:31;22.27;;;16.07;;
14316;SDS011;7242;50.858;6.586;2023-02-10T17:22:33;23.90;;;16.57;;
14316;SDS011;7242;50.858;6.586;2023-02-10T17:25:34;23.60;;;16.10;;
14316;SDS011;7242;50.858;6.586;2023-02-10T17:28:35;21.27;;;16.57;;
14316;SDS011;7242;50.858;6.586;2023-02-10T17:31:36;25.83;;;18.20;;
14316;SDS011;7242;50.858;6.586;2023-02-10T17:34:36;24.37;;;17.50;;
14316;SDS011;7242;50.858;6.586;2023-02-10T17:37:37;22.37;;;16.53;;
14316;SDS011;7242;50.858;6.586;2023-02-10T17:40:38;25.53;;;17.80;;
14316;SDS011;7242;50.858;6.586;2023-02-10T17:43:42;24.70;;;17.43;;
14316;SDS011;7242;50.858;6.586;2023-02-10T17:46:44;25.70;;;19.27;;
14316;SDS011;7242;50.858;6.586;2023-02-10T17:49:48;29.93;;;20.37;;
14316;SDS011;7242;50.858;6.586;2023-02-10T17:52:49;32.27;;;20.57;;
14316;SDS011;7242;50.858;6.586;2023-02-10T17:55:50;28.93;;;20.80;;
14316;SDS011;7242;50.858;6.586;2023-02-10T17:58:51;34.37;;;21.90;;
14316;SDS011;7242;50.858;6.586;2023-02-10T18:01:53;30.33;;;21.90;;
14316;SDS011;7242;50.858;6.586;2023-02-10T18:04:57;28.37;;;20.63;;
14316;SDS011;7242;50.858;6.586;2023-02-10T18:07:59;30.37;;;20.47;;
14316;SDS011;7242;50.858;6.586;2023-02-10T18:11:00;26.57;;;19.03;;
14316;SDS011;7242;50.858;6.586;2023-02-10T18:14:00;26.30;;;19.23;;
14316;SDS011;7242;50.858;6.586;2023-02-10T18:17:02;27.50;;;20.33;;
14316;SDS011;7242;50.858;6.586;2023-02-10T18:20:03;30.57;;;22.17;;
14316;SDS011;7242;50.858;6.586;2023-02-10T18:23:04;28.20;;;20.80;;
14316;SDS011;7242;50.858;6.586;2023-02-10T18:26:06;31.30;;;23.63;;
14316;SDS011;7242;50.858;6.586;2023-02-10T18:29:07;41.90;;;30.70;;
14316;SDS011;7242;50.858;6.586;2023-02-10T18:32:08;42.90;;;30.80;;
14316;SDS011;7242;50.858;6.586;2023-02-10T18:35:10;42.27;;;30.90;;
14316;SDS011;7242;50.858;6.586;2023-02-10T18:38:12;40.43;;;29.43;;
14316;SDS011;7242;50.858;6.586;2023-02-10T18:41:13;38.00;;;26.80;;
14316;SDS011;7242;50.858;6.586;2023-02-10T18:44:13;37.17;;;26.60;;
14316;SDS011;7242;50.858;6.586;2023-02-10T18:47:14;31.57;;;23.60;;
14316;SDS011;7242;50.858;6.586;2023-02-10T18:50:15;33.60;;;23.80;;
14316;SDS011;7242;50.858;6.586;2023-02-10T18:53:17;33.30;;;24.13;;
14316;SDS011;7242;50.858;6.586;2023-02-10T18:56:18;36.67;;;25.40;;
14316;SDS011;7242;50.858;6.586;2023-02-10T18:59:19;34.00;;;24.33;;
14316;SDS011;7242;50.858;6.586;2023-02-10T19:02:24;37.07;;;25.20;;
14316;SDS011;7242;50.858;6.586;2023-02-10T19:05:25;37.53;;;24.67;;
14316;SDS011;7242;50.858;6.586;2023-02-10T19:08:26;38.40;;;25.93;;
14316;SDS011;7242;50.858;6.586;2023-02-10T19:11:27;38.17;;;25.23;;
14316;SDS011;7242;50.858;6.586;2023-02-10T19:14:28;42.37;;;26.70;;
14316;SDS011;7242;50.858;6.586;2023-02-10T19:17:29;37.07;;;25.57;;
14316;SDS011;7242;50.858;6.586;2023-02-10T19:20:30;35.67;;;23.73;;
14316;SDS011;7242;50.858;6.586;2023-02-10T19:23:31;39.10;;;24.80;;
14316;SDS011;7242;50.858;6.586;2023-02-10T19:26:32;34.87;;;23.20;;
14316;SDS011;7242;50.858;6.586;2023-02-10T19:29:32;33.07;;;23.20;;
14316;SDS011;7242;50.858;6.586;2023-02-10T19:32:33;32.87;;;22.03;;
14316;SDS011;7242;50.858;6.586;2023-02-10T19:35:34;35.50;;;23.67;;
14316;SDS011;7242;50.858;6.586;2023-02-10T19:38:36;33.07;;;22.93;;
14316;SDS011;7242;50.858;6.586;2023-02-10T19:41:37;28.93;;;21.20;;
14316;SDS011;7242;50.858;6.586;2023-02-10T19:44:38;34.03;;;22.60;;
14316;SDS011;7242;50.858;6.586;2023-02-10T19:47:39;33.33;;;22.63;;
14316;SDS011;7242;50.858;6.586;2023-02-10T19:50:39;34.87;;;22.47;;
14316;SDS011;7242;50.858;6.586;2023-02-10T19:53:40;30.27;;;22.37;;
14316;SDS011;7242;50.858;6.586;2023-02-10T19:56:41;33.03;;;21.90;;
14316;SDS011;7242;50.858;6.586;2023-02-10T19:59:42;30.10;;;20.80;;
14316;SDS011;7242;50.858;6.586;2023-02-10T20:02:43;31.00;;;21.73;;